Overview Statistics Trail Chart Weather Telemetry Raw packets
 

This is the latest recevied weather packets stored in our database for station/object WW6Q. If no packets are shown the sender has not sent any weather packets the latest 10 day(s).

<< 23 24 25 26 27 28 29 >>
Time Temp. Humidity Pressure Rain* Wind** Luminosity Snow
1788468451 26.67° C 74% 1014.4 hPa 0 mm - 249 W/m² -
1788468147 26.67° C 75% 1014.4 hPa 0 mm - 249 W/m² -
1788467843 26.11° C 78% 1014.4 hPa 0 mm - 255 W/m² -
1788467538 25.56° C 80% 1014.3 hPa 0 mm - 232 W/m² -
1788467231 25.56° C 84% 1014.2 hPa 0 mm - 232 W/m² -
1788466928 25° C 83% 1014.3 hPa 1.27 mm - 260 W/m² -
1788466627 25° C 84% 1014.6 hPa 1.27 mm - 405 W/m² -
1788466323 25° C 82% 1014.6 hPa 1.78 mm - 206 W/m² -
1788466022 26.67° C 75% 1014.1 hPa 1.78 mm - 139 W/m² -
1788465717 27.22° C 68% 1014.1 hPa 0 mm - 101 W/m² -
1788465413 27.78° C 66% 1013.3 hPa 0 mm - 66 W/m² -
1788465109 28.33° C 64% 1012.9 hPa 0 mm - 58 W/m² -
1788464809 31.11° C 61% 1013 hPa 0 mm - 80 W/m² -
1788464504 32.22° C 60% 1012.6 hPa 0 mm - 287 W/m² -
1788464199 32.78° C 59% 1012.8 hPa 0 mm - 134 W/m² -
1788463895 32.78° C 58% 1012.7 hPa 0 mm - 131 W/m² -
1788463592 33.33° C 57% 1012.6 hPa 0 mm - 156 W/m² -
1788463291 33.89° C 55% 1013.1 hPa 0 mm - 155 W/m² -
1788462988 33.89° C 55% 1013 hPa 0 mm - 565 W/m² -
1788462688 33.89° C 55% 1012.6 hPa 0 mm - 543 W/m² -
1788462387 33.89° C 53% 1012.6 hPa 0 mm - 596 W/m² -
1788462082 33.89° C 55% 1012.8 hPa 0 mm - 634 W/m² -
1788461777 33.89° C 52% 1013.2 hPa 0 mm - 617 W/m² -
1788461478 33.89° C 55% 1013.2 hPa 0 mm - 653 W/m² -
1788461174 34.44° C 54% 1013.3 hPa 0 mm - 695 W/m² -

* Rain latest hour (hover to see other rain measurements)
** Current wind speed in m/s (hover to see current wind gust speed)